sensor_id;sensor_type;location;lat;lon;timestamp;temperature;humidity
44359;DHT22;30077;52.474;13.326;2024-01-27T00:08:23;5.90;99.90
44359;DHT22;30077;52.474;13.326;2024-01-27T00:18:24;5.80;99.90
44359;DHT22;30077;52.474;13.326;2024-01-27T00:28:24;5.70;99.90
44359;DHT22;30077;52.474;13.326;2024-01-27T00:38:25;5.70;99.90
44359;DHT22;30077;52.474;13.326;2024-01-27T00:48:26;5.60;99.90
44359;DHT22;30077;52.474;13.326;2024-01-27T00:58:27;5.50;99.90
44359;DHT22;30077;52.474;13.326;2024-01-27T01:08:28;5.60;99.90
44359;DHT22;30077;52.474;13.326;2024-01-27T01:18:28;5.60;99.90
44359;DHT22;30077;52.474;13.326;2024-01-27T01:28:29;5.40;99.90
44359;DHT22;30077;52.474;13.326;2024-01-27T01:38:32;5.40;99.90
44359;DHT22;30077;52.474;13.326;2024-01-27T01:48:32;5.40;99.90
44359;DHT22;30077;52.474;13.326;2024-01-27T01:58:33;5.40;99.90
44359;DHT22;30077;52.474;13.326;2024-01-27T02:08:34;5.40;99.90
44359;DHT22;30077;52.474;13.326;2024-01-27T02:18:35;5.40;99.90
44359;DHT22;30077;52.474;13.326;2024-01-27T02:28:35;5.50;99.90
44359;DHT22;30077;52.474;13.326;2024-01-27T02:38:36;5.50;99.90
44359;DHT22;30077;52.474;13.326;2024-01-27T02:48:40;5.60;99.90
44359;DHT22;30077;52.474;13.326;2024-01-27T02:58:41;5.60;99.90
44359;DHT22;30077;52.474;13.326;2024-01-27T03:08:42;5.50;99.90
44359;DHT22;30077;52.474;13.326;2024-01-27T03:18:43;5.50;99.90
44359;DHT22;30077;52.474;13.326;2024-01-27T03:28:43;5.20;99.90
44359;DHT22;30077;52.474;13.326;2024-01-27T03:38:44;5.10;99.90
44359;DHT22;30077;52.474;13.326;2024-01-27T03:48:45;4.90;99.90
44359;DHT22;30077;52.474;13.326;2024-01-27T03:58:45;4.70;99.90
44359;DHT22;30077;52.474;13.326;2024-01-27T04:08:46;4.70;99.90
44359;DHT22;30077;52.474;13.326;2024-01-27T04:18:47;4.60;99.90
44359;DHT22;30077;52.474;13.326;2024-01-27T04:28:47;4.60;99.90
44359;DHT22;30077;52.474;13.326;2024-01-27T04:38:48;4.60;99.90
44359;DHT22;30077;52.474;13.326;2024-01-27T04:48:49;4.50;99.90
44359;DHT22;30077;52.474;13.326;2024-01-27T04:58:49;4.50;99.90
44359;DHT22;30077;52.474;13.326;2024-01-27T05:08:50;4.70;99.90
44359;DHT22;30077;52.474;13.326;2024-01-27T05:18:51;4.90;99.90
44359;DHT22;30077;52.474;13.326;2024-01-27T05:28:52;5.00;99.90
44359;DHT22;30077;52.474;13.326;2024-01-27T05:38:53;5.00;99.90
44359;DHT22;30077;52.474;13.326;2024-01-27T05:48:54;5.10;99.90
44359;DHT22;30077;52.474;13.326;2024-01-27T05:58:54;5.20;99.90
44359;DHT22;30077;52.474;13.326;2024-01-27T06:08:55;5.10;99.90
44359;DHT22;30077;52.474;13.326;2024-01-27T06:18:55;5.20;99.90
44359;DHT22;30077;52.474;13.326;2024-01-27T06:28:56;5.30;99.90
44359;DHT22;30077;52.474;13.326;2024-01-27T06:38:57;5.30;99.90
44359;DHT22;30077;52.474;13.326;2024-01-27T06:48:57;5.30;99.90
44359;DHT22;30077;52.474;13.326;2024-01-27T06:58:58;5.30;99.90
44359;DHT22;30077;52.474;13.326;2024-01-27T07:08:59;5.30;99.90
44359;DHT22;30077;52.474;13.326;2024-01-27T07:18:59;5.40;99.90
44359;DHT22;30077;52.474;13.326;2024-01-27T07:29:00;5.50;99.90
44359;DHT22;30077;52.474;13.326;2024-01-27T07:39:01;5.50;99.90
44359;DHT22;30077;52.474;13.326;2024-01-27T07:49:02;5.60;99.90
44359;DHT22;30077;52.474;13.326;2024-01-27T07:59:03;5.70;99.90
44359;DHT22;30077;52.474;13.326;2024-01-27T08:09:04;5.70;99.90
44359;DHT22;30077;52.474;13.326;2024-01-27T08:19:04;5.80;99.90
44359;DHT22;30077;52.474;13.326;2024-01-27T08:29:05;5.90;99.90
44359;DHT22;30077;52.474;13.326;2024-01-27T08:39:06;6.00;99.90
44359;DHT22;30077;52.474;13.326;2024-01-27T08:49:09;6.20;99.90
44359;DHT22;30077;52.474;13.326;2024-01-27T08:59:10;6.30;99.90
44359;DHT22;30077;52.474;13.326;2024-01-27T09:09:10;6.40;99.90
44359;DHT22;30077;52.474;13.326;2024-01-27T09:19:12;6.40;99.90
44359;DHT22;30077;52.474;13.326;2024-01-27T09:29:13;6.50;99.90
44359;DHT22;30077;52.474;13.326;2024-01-27T09:39:14;6.60;99.90
44359;DHT22;30077;52.474;13.326;2024-01-27T09:49:15;6.70;99.90
44359;DHT22;30077;52.474;13.326;2024-01-27T09:59:16;6.80;99.90
44359;DHT22;30077;52.474;13.326;2024-01-27T10:09:19;6.90;99.90
44359;DHT22;30077;52.474;13.326;2024-01-27T10:19:19;6.90;99.90
44359;DHT22;30077;52.474;13.326;2024-01-27T10:29:21;7.10;99.90
44359;DHT22;30077;52.474;13.326;2024-01-27T10:39:22;7.00;99.90
44359;DHT22;30077;52.474;13.326;2024-01-27T10:49:24;7.30;99.90
44359;DHT22;30077;52.474;13.326;2024-01-27T10:59:30;7.20;99.90
44359;DHT22;30077;52.474;13.326;2024-01-27T11:09:32;7.30;99.90
44359;DHT22;30077;52.474;13.326;2024-01-27T11:19:34;7.40;99.90
44359;DHT22;30077;52.474;13.326;2024-01-27T11:29:35;7.40;99.90
44359;DHT22;30077;52.474;13.326;2024-01-27T11:39:36;7.20;99.90
44359;DHT22;30077;52.474;13.326;2024-01-27T11:49:39;7.20;99.90
44359;DHT22;30077;52.474;13.326;2024-01-27T11:59:40;7.10;99.90
44359;DHT22;30077;52.474;13.326;2024-01-27T12:09:41;7.20;99.90
44359;DHT22;30077;52.474;13.326;2024-01-27T12:19:51;7.50;99.90
44359;DHT22;30077;52.474;13.326;2024-01-27T12:29:56;7.40;99.90
44359;DHT22;30077;52.474;13.326;2024-01-27T12:39:56;7.10;99.90
44359;DHT22;30077;52.474;13.326;2024-01-27T12:49:57;7.40;99.90
44359;DHT22;30077;52.474;13.326;2024-01-27T12:59:58;7.20;99.90
44359;DHT22;30077;52.474;13.326;2024-01-27T13:09:58;7.30;99.90
44359;DHT22;30077;52.474;13.326;2024-01-27T13:19:59;7.60;99.90
44359;DHT22;30077;52.474;13.326;2024-01-27T13:30:00;7.50;99.90
44359;DHT22;30077;52.474;13.326;2024-01-27T13:40:01;7.70;99.90
44359;DHT22;30077;52.474;13.326;2024-01-27T13:50:02;7.50;99.90
44359;DHT22;30077;52.474;13.326;2024-01-27T14:00:04;7.60;99.90
44359;DHT22;30077;52.474;13.326;2024-01-27T14:10:06;7.60;99.90
44359;DHT22;30077;52.474;13.326;2024-01-27T14:20:07;7.40;99.90
44359;DHT22;30077;52.474;13.326;2024-01-27T14:30:10;7.40;99.90
44359;DHT22;30077;52.474;13.326;2024-01-27T14:40:11;7.50;99.90
44359;DHT22;30077;52.474;13.326;2024-01-27T14:50:13;7.50;99.90
44359;DHT22;30077;52.474;13.326;2024-01-27T15:00:15;7.40;99.90
44359;DHT22;30077;52.474;13.326;2024-01-27T15:10:15;7.30;99.90
44359;DHT22;30077;52.474;13.326;2024-01-27T15:20:16;7.00;99.90
44359;DHT22;30077;52.474;13.326;2024-01-27T15:30:17;6.90;99.90
44359;DHT22;30077;52.474;13.326;2024-01-27T15:40:18;6.80;99.90
44359;DHT22;30077;52.474;13.326;2024-01-27T15:50:19;6.60;99.90
44359;DHT22;30077;52.474;13.326;2024-01-27T16:00:21;6.40;99.90
44359;DHT22;30077;52.474;13.326;2024-01-27T16:10:22;6.20;99.90
44359;DHT22;30077;52.474;13.326;2024-01-27T16:20:24;6.20;99.90
44359;DHT22;30077;52.474;13.326;2024-01-27T16:30:26;6.00;99.90
44359;DHT22;30077;52.474;13.326;2024-01-27T16:40:27;6.00;99.90
44359;DHT22;30077;52.474;13.326;2024-01-27T16:50:27;5.90;99.90
44359;DHT22;30077;52.474;13.326;2024-01-27T17:00:28;5.90;99.90
44359;DHT22;30077;52.474;13.326;2024-01-27T17:10:29;5.80;99.90
44359;DHT22;30077;52.474;13.326;2024-01-27T17:20:29;6.20;99.90
44359;DHT22;30077;52.474;13.326;2024-01-27T17:30:30;5.80;99.90
44359;DHT22;30077;52.474;13.326;2024-01-27T17:40:31;5.80;99.90
44359;DHT22;30077;52.474;13.326;2024-01-27T17:50:33;5.60;99.90
44359;DHT22;30077;52.474;13.326;2024-01-27T18:00:34;5.50;99.90
44359;DHT22;30077;52.474;13.326;2024-01-27T18:10:35;5.60;99.90
44359;DHT22;30077;52.474;13.326;2024-01-27T18:20:37;5.30;99.90
44359;DHT22;30077;52.474;13.326;2024-01-27T18:30:37;5.10;99.90
44359;DHT22;30077;52.474;13.326;2024-01-27T18:40:38;5.00;99.90
44359;DHT22;30077;52.474;13.326;2024-01-27T18:50:38;4.90;99.90
44359;DHT22;30077;52.474;13.326;2024-01-27T19:00:40;4.90;99.90
44359;DHT22;30077;52.474;13.326;2024-01-27T19:10:41;4.80;99.90
44359;DHT22;30077;52.474;13.326;2024-01-27T19:20:45;4.70;99.90
44359;DHT22;30077;52.474;13.326;2024-01-27T19:30:45;4.60;99.90
44359;DHT22;30077;52.474;13.326;2024-01-27T19:40:46;4.60;99.90
44359;DHT22;30077;52.474;13.326;2024-01-27T19:50:47;4.60;99.90
44359;DHT22;30077;52.474;13.326;2024-01-27T20:00:48;4.60;99.90
44359;DHT22;30077;52.474;13.326;2024-01-27T20:10:49;4.60;99.90
44359;DHT22;30077;52.474;13.326;2024-01-27T20:20:49;4.50;99.90
44359;DHT22;30077;52.474;13.326;2024-01-27T20:30:53;4.50;99.90
44359;DHT22;30077;52.474;13.326;2024-01-27T20:40:54;4.50;99.90
44359;DHT22;30077;52.474;13.326;2024-01-27T20:50:54;4.40;99.90
44359;DHT22;30077;52.474;13.326;2024-01-27T21:00:55;4.30;99.90
44359;DHT22;30077;52.474;13.326;2024-01-27T21:10:55;4.30;99.90
44359;DHT22;30077;52.474;13.326;2024-01-27T21:20:56;4.20;99.90
44359;DHT22;30077;52.474;13.326;2024-01-27T21:30:59;4.20;99.90
44359;DHT22;30077;52.474;13.326;2024-01-27T21:40:59;4.20;99.90
44359;DHT22;30077;52.474;13.326;2024-01-27T21:51:00;4.20;99.90
44359;DHT22;30077;52.474;13.326;2024-01-27T22:01:01;4.20;99.90
44359;DHT22;30077;52.474;13.326;2024-01-27T22:11:02;4.20;99.90
44359;DHT22;30077;52.474;13.326;2024-01-27T22:21:03;4.20;99.90
44359;DHT22;30077;52.474;13.326;2024-01-27T22:31:05;4.20;99.90
44359;DHT22;30077;52.474;13.326;2024-01-27T22:41:06;4.00;99.90
44359;DHT22;30077;52.474;13.326;2024-01-27T22:51:08;3.90;99.90
44359;DHT22;30077;52.474;13.326;2024-01-27T23:01:09;3.90;99.90
44359;DHT22;30077;52.474;13.326;2024-01-27T23:11:11;3.90;99.90
44359;DHT22;30077;52.474;13.326;2024-01-27T23:21:11;3.80;99.90
44359;DHT22;30077;52.474;13.326;2024-01-27T23:31:12;3.80;99.90
44359;DHT22;30077;52.474;13.326;2024-01-27T23:41:14;3.70;99.90
44359;DHT22;30077;52.474;13.326;2024-01-27T23:51:15;3.70;99.90
